Time;durP1;ratioP1;P1;durP2;ratioP2;P2;SDS_P1;SDS_P2;PMS_P1;PMS_P2;Temp;Humidity;BMP_temperature;BMP_pressure;BME280_temperature;BME280_humidity;BME280_pressure;Samples;Min_cycle;Max_cycle;Signal;HPM_P1;HPM_P2
2023/02/23 00:00:47;;;;;;;12.43;5.43;;;9.10;99.90;;;;;;4993437;28;20038;-79
2023/02/23 00:03:13;;;;;;;8.30;4.90;;;9.00;99.90;;;;;;4982038;28;20043;-79
2023/02/23 00:05:39;;;;;;;9.82;4.45;;;8.90;99.90;;;;;;4985742;28;20053;-79
2023/02/23 00:08:05;;;;;;;8.15;4.38;;;8.90;99.90;;;;;;4990959;28;20396;-79
2023/02/23 00:10:32;;;;;;;9.57;4.65;;;8.80;99.90;;;;;;4992275;28;20509;-79
2023/02/23 00:12:58;;;;;;;11.93;4.80;;;8.70;99.90;;;;;;4992385;28;20472;-79
2023/02/23 00:15:25;;;;;;;10.93;4.55;;;8.60;99.90;;;;;;4975403;28;20401;-79
2023/02/23 00:17:54;;;;;;;10.68;4.22;;;8.60;99.90;;;;;;4975630;28;20061;-79
2023/02/23 00:20:24;;;;;;;7.60;4.93;;;8.60;99.90;;;;;;4993058;28;20038;-79
2023/02/23 00:22:55;;;;;;;14.68;5.20;;;8.50;99.90;;;;;;5001073;28;20031;-79
2023/02/23 00:25:22;;;;;;;11.77;4.60;;;8.60;99.90;;;;;;5005078;28;20039;-79
2023/02/23 00:27:48;;;;;;;13.95;4.90;;;8.60;99.90;;;;;;4990106;28;20026;-79
2023/02/23 00:30:17;;;;;;;8.55;4.25;;;8.50;99.90;;;;;;5007777;28;20039;-79
2023/02/23 00:32:43;;;;;;;9.80;4.60;;;8.60;99.90;;;;;;4992915;28;20027;-78
2023/02/23 00:35:15;;;;;;;10.75;4.60;;;8.60;99.90;;;;;;5007676;28;20034;-79
2023/02/23 00:37:46;;;;;;;8.57;4.22;;;8.60;99.90;;;;;;4990096;28;20415;-79
2023/02/23 00:40:13;;;;;;;12.90;5.00;;;8.60;99.90;;;;;;5015256;28;20041;-79
2023/02/23 00:42:39;;;;;;;10.23;4.80;;;8.60;99.90;;;;;;5024114;28;20492;-79
2023/02/23 00:45:11;;;;;;;11.65;5.70;;;8.60;99.90;;;;;;5009967;28;20027;-78
2023/02/23 00:47:41;;;;;;;11.55;5.10;;;8.70;99.90;;;;;;4980899;28;20470;-79
2023/02/23 00:50:13;;;;;;;12.27;4.93;;;8.80;99.90;;;;;;4992353;28;20034;-79
2023/02/23 00:52:40;;;;;;;15.95;5.30;;;8.80;99.90;;;;;;4972403;28;20050;-79
2023/02/23 00:55:07;;;;;;;11.73;4.80;;;8.80;99.90;;;;;;4991473;28;20034;-79
2023/02/23 00:57:33;;;;;;;14.00;5.47;;;8.80;99.90;;;;;;4982368;28;20031;-79
2023/02/23 00:59:59;;;;;;;14.75;4.95;;;8.90;99.90;;;;;;4983665;28;20034;-79
2023/02/23 01:02:29;;;;;;;12.57;5.33;;;8.80;99.90;;;;;;4987389;28;20046;-79
2023/02/23 01:04:55;;;;;;;13.25;5.22;;;8.80;99.90;;;;;;5003885;28;20031;-78
2023/02/23 01:07:24;;;;;;;9.73;5.03;;;8.90;99.90;;;;;;4988656;28;20039;-78
2023/02/23 01:09:51;;;;;;;11.10;5.03;;;8.80;99.90;;;;;;4991429;28;20050;-78
2023/02/23 01:12:17;;;;;;;12.57;5.60;;;8.80;99.90;;;;;;5010157;28;20047;-78
2023/02/23 01:14:43;;;;;;;9.25;4.95;;;8.80;99.90;;;;;;5027318;28;20037;-78
2023/02/23 01:17:09;;;;;;;10.00;5.27;;;8.70;99.90;;;;;;4993647;28;20050;-78
2023/02/23 01:19:35;;;;;;;8.37;4.97;;;8.70;99.90;;;;;;4978946;28;20030;-78
2023/02/23 01:22:01;;;;;;;14.05;5.30;;;8.70;99.90;;;;;;4977902;28;20065;-78
2023/02/23 01:24:28;;;;;;;13.73;6.18;;;8.50;99.90;;;;;;4996105;28;20031;-78
2023/02/23 01:26:54;;;;;;;12.15;5.35;;;8.40;99.90;;;;;;5010736;28;20372;-78
2023/02/23 01:29:20;;;;;;;12.48;5.50;;;8.30;99.90;;;;;;4994312;28;20038;-78
2023/02/23 01:31:47;;;;;;;13.75;4.97;;;8.30;99.90;;;;;;4993818;28;20053;-78
2023/02/23 01:34:13;;;;;;;12.40;5.07;;;8.30;99.90;;;;;;4978851;28;20030;-78
2023/02/23 01:36:41;;;;;;;13.30;5.57;;;8.20;99.90;;;;;;4976769;28;20091;-77
2023/02/23 01:39:10;;;;;;;10.80;5.33;;;8.10;99.90;;;;;;4978549;28;20035;-78
2023/02/23 01:41:37;;;;;;;13.38;5.40;;;8.20;99.90;;;;;;4962880;28;20038;-78
2023/02/23 01:44:06;;;;;;;10.43;5.60;;;8.30;99.90;;;;;;4978420;28;20031;-78
2023/02/23 01:46:34;;;;;;;13.10;5.53;;;8.30;99.90;;;;;;5007984;28;20026;-78
2023/02/23 01:49:00;;;;;;;14.63;5.37;;;8.40;99.90;;;;;;4991120;28;20050;-78
2023/02/23 01:51:28;;;;;;;12.33;5.60;;;8.30;99.90;;;;;;4990503;28;20038;-78
2023/02/23 01:54:01;;;;;;;13.83;5.70;;;8.20;99.90;;;;;;4977454;28;20491;-78
2023/02/23 01:56:30;;;;;;;17.45;5.90;;;8.10;99.90;;;;;;5009569;28;20050;-77
2023/02/23 01:58:57;;;;;;;12.40;5.95;;;8.10;99.90;;;;;;4991149;28;20388;-78
2023/02/23 02:01:23;;;;;;;16.30;5.37;;;8.00;99.90;;;;;;4997342;28;20412;-78
2023/02/23 02:03:53;;;;;;;12.63;5.10;;;7.90;99.90;;;;;;4978618;28;20041;-78
2023/02/23 02:06:20;;;;;;;10.23;5.17;;;7.90;99.90;;;;;;4970850;28;20357;-78
2023/02/23 02:08:48;;;;;;;10.23;5.03;;;7.80;99.90;;;;;;5007246;28;20056;-78
2023/02/23 02:11:24;;;;;;;10.17;5.63;;;7.80;99.90;;;;;;5010225;28;20030;-78
2023/02/23 02:13:57;;;;;;;14.10;5.30;;;7.80;99.90;;;;;;5008054;28;20042;-78
2023/02/23 02:16:23;;;;;;;10.80;5.30;;;7.80;99.90;;;;;;5019497;28;20050;-78
2023/02/23 02:19:07;;;;;;;12.10;5.53;;;7.70;99.90;;;;;;4992586;28;20510;-77
2023/02/23 02:21:50;;;;;;;13.97;5.00;;;7.80;99.90;;;;;;5013825;28;20043;-78
2023/02/23 02:24:54;;;;;;;13.18;5.40;;;7.80;99.90;;;;;;5009292;28;20038;-77
2023/02/23 02:27:53;;;;;;;11.87;4.93;;;7.80;99.90;;;;;;4993838;28;20031;-78
2023/02/23 02:30:38;;;;;;;9.27;5.33;;;7.70;99.90;;;;;;4992873;28;20053;-77
2023/02/23 02:33:42;;;;;;;6.37;5.03;;;7.70;99.90;;;;;;4992297;28;20060;-78
2023/02/23 02:36:39;;;;;;;11.03;5.43;;;7.80;99.90;;;;;;4992289;28;20072;-78
2023/02/23 02:39:22;;;;;;;12.13;5.27;;;7.80;99.90;;;;;;4984101;28;20041;-77
2023/02/23 02:42:07;;;;;;;11.93;5.33;;;7.80;99.90;;;;;;4977373;28;20031;-78
2023/02/23 02:45:09;;;;;;;20.20;5.73;;;7.90;99.90;;;;;;5000177;28;20487;-78
2023/02/23 02:47:46;;;;;;;9.93;5.23;;;7.90;99.90;;;;;;5009552;28;20057;-78
2023/02/23 02:50:20;;;;;;;12.43;5.40;;;7.90;99.90;;;;;;4975622;28;20049;-78
2023/02/23 02:52:51;;;;;;;8.93;5.17;;;7.90;99.90;;;;;;4993190;28;20038;-77
2023/02/23 02:55:27;;;;;;;12.82;5.10;;;8.00;99.90;;;;;;4973502;28;20043;-78
2023/02/23 02:57:56;;;;;;;11.87;5.10;;;7.90;99.90;;;;;;5006375;28;20061;-78
2023/02/23 04:18:06;;;;;;;10.10;4.27;;;7.70;99.90;;;;;;5028949;28;20045;-77
2023/02/23 04:20:32;;;;;;;8.27;4.90;;;7.70;99.90;;;;;;5027565;28;20050;-78
2023/02/23 04:22:58;;;;;;;13.23;4.50;;;7.70;99.90;;;;;;5026719;28;20042;-77
2023/02/23 04:25:25;;;;;;;10.90;4.77;;;7.80;99.90;;;;;;5027115;28;20475;-78
2023/02/23 04:27:51;;;;;;;11.20;4.23;;;7.70;99.90;;;;;;5036007;28;20393;-78
2023/02/23 04:30:19;;;;;;;9.77;4.87;;;7.70;99.90;;;;;;5025662;28;20034;-78
2023/02/23 04:32:45;;;;;;;10.00;5.03;;;7.50;99.90;;;;;;5027199;28;20407;-78
2023/02/23 04:35:12;;;;;;;10.27;4.83;;;7.40;99.90;;;;;;5043935;28;20030;-77
2023/02/23 04:37:38;;;;;;;10.43;4.73;;;7.50;99.90;;;;;;4978840;28;20495;-78
2023/02/23 04:40:05;;;;;;;12.70;5.53;;;7.40;99.90;;;;;;4994780;28;20395;-78
2023/02/23 04:42:31;;;;;;;12.33;5.00;;;7.40;99.90;;;;;;4994320;28;20041;-78
2023/02/23 04:44:58;;;;;;;7.63;4.60;;;7.40;99.90;;;;;;5011288;28;20026;-78
2023/02/23 04:47:24;;;;;;;9.23;4.50;;;7.50;99.90;;;;;;4978769;28;20419;-78
2023/02/23 04:49:50;;;;;;;10.77;4.83;;;7.60;99.90;;;;;;5028739;28;20031;-78
2023/02/23 04:52:16;;;;;;;9.87;4.60;;;7.60;99.90;;;;;;5011192;28;20030;-77
2023/02/23 04:54:42;;;;;;;8.40;4.90;;;7.50;99.90;;;;;;4996630;28;20038;-78
2023/02/23 04:57:08;;;;;;;14.80;5.27;;;7.30;99.90;;;;;;5027397;28;20053;-78
2023/02/23 04:59:34;;;;;;;10.57;5.07;;;7.20;99.90;;;;;;5001151;28;20049;-78
2023/02/23 05:02:01;;;;;;;13.50;5.17;;;7.10;99.90;;;;;;5013715;28;20502;-78
2023/02/23 05:04:27;;;;;;;8.07;5.00;;;7.00;99.90;;;;;;5047892;28;20516;-78
2023/02/23 05:06:53;;;;;;;14.17;4.90;;;6.80;99.90;;;;;;5017331;28;20049;-78
2023/02/23 05:09:19;;;;;;;10.70;4.70;;;6.80;99.90;;;;;;5014678;28;20403;-78
2023/02/23 05:11:46;;;;;;;10.37;4.57;;;6.80;99.90;;;;;;5007165;28;20050;-77
2023/02/23 05:14:12;;;;;;;14.17;5.00;;;6.80;99.90;;;;;;5011672;28;20031;-78
2023/02/23 05:16:38;;;;;;;9.20;4.80;;;6.80;99.90;;;;;;5002546;28;20507;-78
2023/02/23 05:19:04;;;;;;;8.83;4.60;;;6.80;99.90;;;;;;5011502;28;20026;-78
2023/02/23 05:21:30;;;;;;;11.83;5.40;;;6.80;99.90;;;;;;5008774;28;20050;-77
2023/02/23 05:23:56;;;;;;;7.73;4.97;;;6.70;99.90;;;;;;5047672;28;20391;-77
2023/02/23 05:26:22;;;;;;;10.70;4.60;;;6.80;99.90;;;;;;5012905;28;20030;-78
2023/02/23 05:28:48;;;;;;;11.33;5.33;;;6.80;99.90;;;;;;5018968;28;20384;-78
2023/02/23 05:31:15;;;;;;;11.60;5.60;;;6.90;99.90;;;;;;5013142;28;20049;-78
2023/02/23 05:33:41;;;;;;;10.10;4.77;;;6.90;99.90;;;;;;5027559;28;20029;-78
2023/02/23 05:36:17;;;;;;;8.23;4.80;;;6.80;99.90;;;;;;5011085;28;20030;-77
2023/02/23 05:38:43;;;;;;;7.90;5.27;;;6.90;99.90;;;;;;5020500;28;20034;-76
2023/02/23 05:41:11;;;;;;;8.00;4.97;;;6.90;99.90;;;;;;5027330;28;20030;-78
2023/02/23 05:43:37;;;;;;;11.93;5.23;;;6.80;99.90;;;;;;4999008;28;20034;-77
2023/02/23 05:46:07;;;;;;;14.07;5.33;;;6.80;99.90;;;;;;5017389;28;20043;-77
2023/02/23 05:48:34;;;;;;;9.70;5.13;;;6.90;99.90;;;;;;5007684;28;20038;-78
2023/02/23 05:51:02;;;;;;;9.80;4.60;;;7.00;99.90;;;;;;5016108;28;20042;-78
2023/02/23 05:53:28;;;;;;;8.93;5.20;;;7.00;99.90;;;;;;4995317;28;20041;-77
2023/02/23 05:55:54;;;;;;;10.73;5.80;;;7.00;99.90;;;;;;4994355;28;20054;-77
2023/02/23 05:58:20;;;;;;;12.10;5.47;;;6.90;99.90;;;;;;4994374;28;20053;-77
2023/02/23 06:00:46;;;;;;;10.40;5.60;;;6.80;99.90;;;;;;4999866;28;20041;-77
2023/02/23 06:03:13;;;;;;;9.93;4.93;;;6.70;99.90;;;;;;4997890;28;20044;-77
2023/02/23 06:05:39;;;;;;;14.90;4.93;;;6.70;99.90;;;;;;5030031;28;20065;-78
2023/02/23 06:08:05;;;;;;;15.40;5.73;;;6.80;99.90;;;;;;5041903;28;20383;-78
2023/02/23 06:10:31;;;;;;;7.63;4.83;;;6.80;99.90;;;;;;5045274;28;20376;-77
2023/02/23 06:12:57;;;;;;;8.83;4.90;;;6.80;99.90;;;;;;5012465;28;20049;-77
2023/02/23 06:15:23;;;;;;;11.33;5.10;;;6.80;99.90;;;;;;5014443;28;20467;-77
2023/02/23 06:17:49;;;;;;;11.37;5.37;;;6.80;99.90;;;;;;5013177;28;20053;-77
2023/02/23 06:20:16;;;;;;;12.97;4.83;;;6.70;99.90;;;;;;5014569;28;20616;-77
2023/02/23 06:22:42;;;;;;;11.57;5.80;;;6.70;99.90;;;;;;5030122;28;20038;-77
2023/02/23 06:25:11;;;;;;;15.63;5.37;;;6.70;99.90;;;;;;5009566;28;20030;-77
2023/02/23 06:27:38;;;;;;;12.90;5.60;;;6.60;99.90;;;;;;5012674;28;20038;-77
2023/02/23 06:30:05;;;;;;;12.23;5.50;;;6.60;99.90;;;;;;5013846;28;20422;-76
2023/02/23 06:32:31;;;;;;;10.97;5.37;;;6.60;99.90;;;;;;4989503;28;20047;-76
2023/02/23 06:34:57;;;;;;;9.00;5.67;;;6.60;99.90;;;;;;5030357;28;20030;-78
2023/02/23 06:37:23;;;;;;;11.03;5.67;;;6.60;99.90;;;;;;5009922;28;20045;-77
2023/02/23 06:39:49;;;;;;;13.53;5.63;;;6.50;99.90;;;;;;5001601;28;20403;-77
2023/02/23 06:42:16;;;;;;;11.37;5.83;;;6.60;99.90;;;;;;5045782;28;20048;-78
2023/02/23 06:44:42;;;;;;;10.73;5.87;;;6.70;99.90;;;;;;5029789;28;20034;-77
2023/02/23 06:47:09;;;;;;;12.70;5.90;;;6.60;99.90;;;;;;5057735;28;20399;-77
2023/02/23 06:49:35;;;;;;;10.47;5.07;;;6.60;99.90;;;;;;5013490;28;20046;-77
2023/02/23 06:52:01;;;;;;;11.10;5.10;;;6.70;99.90;;;;;;5012546;28;20037;-77
2023/02/23 06:54:27;;;;;;;11.83;5.17;;;6.70;99.90;;;;;;5011633;28;20399;-77
2023/02/23 06:56:55;;;;;;;9.40;5.33;;;6.70;99.90;;;;;;5012842;28;20041;-79
2023/02/23 06:59:22;;;;;;;13.50;6.30;;;6.80;99.90;;;;;;5037358;28;20026;-79
2023/02/23 07:01:48;;;;;;;12.77;5.47;;;6.70;99.90;;;;;;5028127;28;20046;-78
2023/02/23 07:04:14;;;;;;;11.13;5.00;;;6.50;99.90;;;;;;5000156;28;20038;-78
2023/02/23 07:06:41;;;;;;;14.13;5.60;;;6.40;99.90;;;;;;5028778;28;20033;-77
2023/02/23 07:09:07;;;;;;;9.50;4.97;;;6.40;99.90;;;;;;5031649;28;20069;-77
2023/02/23 07:11:33;;;;;;;12.53;6.30;;;6.40;99.90;;;;;;5030673;28;20026;-76
2023/02/23 07:14:00;;;;;;;8.03;5.30;;;6.40;99.90;;;;;;5028361;28;20042;-74
2023/02/23 07:16:27;;;;;;;9.23;5.10;;;6.60;99.90;;;;;;5021258;28;20045;-78
2023/02/23 07:18:54;;;;;;;18.00;5.10;;;6.70;99.90;;;;;;5013119;28;20123;-75
2023/02/23 07:21:20;;;;;;;13.30;5.83;;;6.70;99.90;;;;;;5013280;28;20522;-75
2023/02/23 07:23:49;;;;;;;10.80;4.80;;;6.60;99.90;;;;;;5027951;28;20034;-75
2023/02/23 07:26:16;;;;;;;9.73;4.80;;;6.50;99.90;;;;;;5009637;28;20038;-76
2023/02/23 07:28:42;;;;;;;8.37;4.87;;;6.50;99.90;;;;;;5006722;28;20383;-75
2023/02/23 07:31:08;;;;;;;8.53;5.30;;;6.70;99.90;;;;;;5010210;28;20041;-75
2023/02/23 07:33:34;;;;;;;7.70;5.40;;;6.70;99.90;;;;;;5045090;28;20022;-76
2023/02/23 07:36:00;;;;;;;14.27;5.73;;;6.80;99.90;;;;;;5026332;28;20030;-76
2023/02/23 07:38:27;;;;;;;10.10;5.33;;;6.80;99.90;;;;;;5041031;28;20038;-75
2023/02/23 07:40:53;;;;;;;12.57;5.50;;;6.70;99.90;;;;;;5010870;28;20387;-75
2023/02/23 07:43:23;;;;;;;13.73;5.77;;;6.60;99.90;;;;;;5011409;28;20381;-75
2023/02/23 07:45:50;;;;;;;16.00;6.70;;;6.70;99.90;;;;;;5035302;28;20505;-75
2023/02/23 07:48:17;;;;;;;11.73;6.17;;;6.80;99.90;;;;;;5015209;28;20042;-75
2023/02/23 07:50:43;;;;;;;10.40;6.13;;;6.90;99.90;;;;;;5023573;28;20671;-75
2023/02/23 07:53:10;;;;;;;11.07;6.10;;;6.80;99.90;;;;;;5012145;28;20629;-74
2023/02/23 07:55:39;;;;;;;10.53;6.07;;;6.70;99.90;;;;;;5009101;28;20474;-75
2023/02/23 07:58:05;;;;;;;10.43;5.83;;;6.80;99.90;;;;;;5011748;28;20042;-76
2023/02/23 08:00:32;;;;;;;13.00;5.93;;;6.90;99.90;;;;;;4994306;28;20041;-75
2023/02/23 08:03:00;;;;;;;11.87;6.10;;;6.90;99.90;;;;;;5044139;28;20085;-75
2023/02/23 08:05:27;;;;;;;10.30;6.00;;;6.70;99.90;;;;;;5025575;28;20038;-75
2023/02/23 08:07:54;;;;;;;9.50;5.60;;;6.70;99.90;;;;;;5028176;28;20504;-75
2023/02/23 08:10:21;;;;;;;9.63;5.40;;;6.70;99.90;;;;;;5035621;28;20479;-75
2023/02/23 08:12:47;;;;;;;9.77;5.07;;;6.60;99.90;;;;;;5026955;28;20033;-76
2023/02/23 08:15:13;;;;;;;11.33;4.97;;;6.50;99.90;;;;;;5032370;28;20041;-76
2023/02/23 08:17:40;;;;;;;9.13;4.83;;;6.60;99.90;;;;;;5017053;28;20411;-76
2023/02/23 08:20:06;;;;;;;11.93;4.83;;;6.50;99.90;;;;;;5011276;28;20034;-77
2023/02/23 08:22:32;;;;;;;9.50;5.10;;;6.50;99.90;;;;;;5006660;28;20053;-74
2023/02/23 08:24:59;;;;;;;9.70;4.97;;;6.50;99.90;;;;;;5012156;28;20471;-76
2023/02/23 08:27:25;;;;;;;12.03;5.20;;;6.60;99.90;;;;;;4993720;28;20046;-75
2023/02/23 08:29:55;;;;;;;13.13;5.37;;;6.60;99.90;;;;;;5044267;28;20030;-75
2023/02/23 08:32:21;;;;;;;9.73;5.13;;;6.50;99.90;;;;;;5025927;28;20038;-74
2023/02/23 08:34:47;;;;;;;10.77;5.47;;;6.50;99.90;;;;;;5011660;28;20037;-79
2023/02/23 08:37:13;;;;;;;8.10;5.00;;;6.60;99.90;;;;;;5011421;28;20041;-80
2023/02/23 08:39:39;;;;;;;8.53;5.90;;;6.60;99.90;;;;;;5012280;28;20056;-79
2023/02/23 08:42:06;;;;;;;16.97;6.03;;;6.70;99.90;;;;;;5008666;28;20031;-79
2023/02/23 08:44:32;;;;;;;7.77;5.43;;;6.80;99.90;;;;;;5006222;28;20393;-82
2023/02/23 08:46:58;;;;;;;10.63;5.70;;;6.70;99.90;;;;;;5021441;28;20041;-86
2023/02/23 08:49:24;;;;;;;13.33;6.47;;;6.70;99.90;;;;;;5023994;28;20038;-79
2023/02/23 08:51:51;;;;;;;9.80;5.83;;;6.80;99.90;;;;;;5028935;28;20490;-80
2023/02/23 08:54:19;;;;;;;9.70;6.23;;;6.80;99.90;;;;;;5017165;28;20495;-78
2023/02/23 08:56:45;;;;;;;9.60;6.00;;;6.70;99.90;;;;;;5014583;28;20668;-79
2023/02/23 08:59:11;;;;;;;14.07;6.17;;;6.70;99.90;;;;;;4991669;28;20050;-79
2023/02/23 09:01:37;;;;;;;9.50;5.73;;;6.90;99.90;;;;;;5023090;28;20629;-78
2023/02/23 09:04:04;;;;;;;7.57;5.50;;;7.00;99.90;;;;;;4999527;28;20037;-78
2023/02/23 09:06:30;;;;;;;10.10;5.90;;;7.00;99.90;;;;;;5035946;28;20033;-79
2023/02/23 09:08:57;;;;;;;8.87;5.80;;;7.10;99.90;;;;;;5020555;28;20029;-77
2023/02/23 09:11:23;;;;;;;13.03;5.40;;;7.20;99.90;;;;;;5007622;28;20086;-79
2023/02/23 09:13:49;;;;;;;10.50;6.10;;;7.20;99.90;;;;;;5026331;28;20045;-78
2023/02/23 09:16:15;;;;;;;12.07;5.50;;;7.20;99.90;;;;;;4990734;28;20026;-78
2023/02/23 09:18:41;;;;;;;13.20;5.90;;;7.20;99.90;;;;;;5007450;28;20054;-77
2023/02/23 09:21:09;;;;;;;10.23;5.57;;;7.10;99.90;;;;;;5010648;28;20503;-77
2023/02/23 09:23:35;;;;;;;11.47;6.40;;;7.10;99.90;;;;;;5002992;28;20403;-77
2023/02/23 09:26:05;;;;;;;14.87;5.87;;;7.20;99.90;;;;;;5033601;28;20034;-77
2023/02/23 09:28:32;;;;;;;12.50;6.17;;;7.20;99.90;;;;;;5011871;28;20026;-80
2023/02/23 09:31:07;;;;;;;12.07;5.80;;;7.30;99.90;;;;;;5024547;28;20026;-77
2023/02/23 09:33:33;;;;;;;12.27;6.37;;;7.20;99.90;;;;;;5002071;28;20046;-78
2023/02/23 09:35:59;;;;;;;10.83;5.60;;;7.20;99.90;;;;;;5027502;28;20033;-77
2023/02/23 09:38:25;;;;;;;9.03;5.47;;;7.20;99.90;;;;;;5011503;28;20054;-80
2023/02/23 09:40:52;;;;;;;11.60;6.10;;;7.20;99.90;;;;;;5010770;28;20038;-80
2023/02/23 09:43:34;;;;;;;11.90;6.20;;;7.20;99.90;;;;;;4993394;28;20395;-80
2023/02/23 09:46:27;;;;;;;8.07;5.43;;;7.20;99.90;;;;;;5056183;28;20379;-79
2023/02/23 09:48:54;;;;;;;9.97;5.23;;;7.10;99.90;;;;;;5013175;28;20383;-77
2023/02/23 09:51:20;;;;;;;8.97;5.47;;;7.10;99.90;;;;;;5032526;28;20363;-77
2023/02/23 09:53:50;;;;;;;10.27;6.00;;;7.10;99.90;;;;;;5011125;28;20045;-77
2023/02/23 09:56:24;;;;;;;14.13;5.57;;;7.20;99.90;;;;;;5032880;28;20045;-77
2023/02/23 09:58:50;;;;;;;9.93;5.70;;;7.20;99.90;;;;;;5013685;28;20056;-77
2023/02/23 10:01:44;;;;;;;15.53;5.93;;;7.20;99.90;;;;;;5037347;28;20034;-79
2023/02/23 10:04:16;;;;;;;10.00;5.70;;;7.10;99.90;;;;;;5024705;28;20392;-77
2023/02/23 10:06:43;;;;;;;9.73;5.03;;;7.10;99.90;;;;;;5026714;28;20042;-79
2023/02/23 10:09:37;;;;;;;9.83;5.33;;;7.10;99.90;;;;;;5012949;28;20037;-77
2023/02/23 10:12:12;;;;;;;14.63;5.40;;;7.10;99.90;;;;;;5030823;28;20029;-77
2023/02/23 10:14:55;;;;;;;10.70;5.40;;;7.10;99.90;;;;;;5027831;28;20029;-77
2023/02/23 10:17:37;;;;;;;13.00;5.50;;;7.10;99.90;;;;;;5031611;28;20396;-78
2023/02/23 10:20:12;;;;;;;9.73;5.50;;;7.10;99.90;;;;;;5027361;28;20514;-78
2023/02/23 10:22:39;;;;;;;16.00;6.17;;;7.10;99.90;;;;;;4995349;28;20514;-78
2023/02/23 10:25:11;;;;;;;13.73;5.87;;;7.10;99.90;;;;;;4993828;28;20411;-78
2023/02/23 10:27:40;;;;;;;13.83;6.00;;;7.00;99.90;;;;;;5025223;28;20027;-77
2023/02/23 10:30:37;;;;;;;9.80;6.43;;;7.10;99.90;;;;;;5025580;28;20045;-79
2023/02/23 10:33:18;;;;;;;12.20;6.77;;;7.20;99.90;;;;;;4993389;28;20413;-78
2023/02/23 10:35:44;;;;;;;12.30;7.00;;;7.10;99.90;;;;;;4997375;28;20049;-79
2023/02/23 10:38:17;;;;;;;13.33;6.97;;;7.10;99.90;;;;;;5021949;28;20049;-79
2023/02/23 10:40:45;;;;;;;14.27;7.57;;;7.10;99.90;;;;;;5015552;28;20190;-78
2023/02/23 10:43:12;;;;;;;8.67;7.57;;;7.10;99.90;;;;;;5013749;28;20037;-79
2023/02/23 10:45:48;;;;;;;13.93;7.20;;;7.10;99.90;;;;;;5015988;28;20030;-78
2023/02/23 10:48:38;;;;;;;10.23;6.90;;;7.10;99.90;;;;;;5012244;28;20053;-79
2023/02/23 10:51:05;;;;;;;14.13;6.77;;;7.00;99.90;;;;;;4994404;28;20030;-77
2023/02/23 10:53:34;;;;;;;14.57;8.67;;;7.00;99.90;;;;;;5013488;28;20049;-78
2023/02/23 10:56:14;;;;;;;11.33;7.40;;;7.10;99.90;;;;;;5030895;28;20023;-79
2023/02/23 10:58:51;;;;;;;14.87;7.00;;;7.20;99.90;;;;;;5011706;28;20053;-78
2023/02/23 11:01:43;;;;;;;11.00;8.00;;;7.30;99.90;;;;;;5025217;28;20034;-77
2023/02/23 11:04:18;;;;;;;14.50;7.40;;;7.40;99.90;;;;;;5022927;28;20033;-78
2023/02/23 11:06:45;;;;;;;9.47;6.33;;;7.40;99.90;;;;;;5013157;28;20518;-78
2023/02/23 11:09:25;;;;;;;9.20;6.53;;;7.30;99.90;;;;;;5009716;28;20041;-79
2023/02/23 11:12:01;;;;;;;7.95;5.50;;;7.30;99.90;;;;;;5011792;28;20049;-79
2023/02/23 11:14:28;;;;;;;11.80;7.33;;;7.30;99.90;;;;;;5012495;28;20035;-79
2023/02/23 11:16:55;;;;;;;13.80;7.60;;;7.30;99.90;;;;;;4993601;28;20403;-79
2023/02/23 11:19:32;;;;;;;12.90;7.40;;;7.30;99.90;;;;;;5021772;28;20507;-79
2023/02/23 11:21:58;;;;;;;7.67;5.80;;;7.30;99.90;;;;;;5043681;28;20049;-80
2023/02/23 11:24:26;;;;;;;8.70;5.97;;;7.20;99.90;;;;;;5042464;28;20034;-84
2023/02/23 11:26:53;;;;;;;12.30;5.57;;;7.10;99.90;;;;;;5010826;28;20034;-85
2023/02/23 11:29:39;;;;;;;11.20;6.50;;;7.10;99.90;;;;;;4995146;28;20026;-85
2023/02/23 11:32:13;;;;;;;9.10;6.27;;;7.10;99.90;;;;;;5033644;28;20041;-84
2023/02/23 11:34:40;;;;;;;10.93;6.37;;;7.10;99.90;;;;;;5027259;28;20375;-82
2023/02/23 11:37:20;;;;;;;12.17;6.93;;;7.00;99.90;;;;;;5044817;28;20389;-83
2023/02/23 11:39:56;;;;;;;18.87;7.33;;;7.10;99.90;;;;;;5039492;28;20042;-84
2023/02/23 11:42:24;;;;;;;9.97;6.47;;;7.10;99.90;;;;;;5025556;28;20033;-82
2023/02/23 11:45:03;;;;;;;13.13;10.43;;;7.10;99.90;;;;;;5036832;28;20038;-85
2023/02/23 11:47:29;;;;;;;12.13;8.50;;;7.10;99.90;;;;;;5010235;28;20045;-82
2023/02/23 11:49:55;;;;;;;10.57;9.47;;;7.10;99.90;;;;;;4994897;28;20041;-82
2023/02/23 11:52:22;;;;;;;10.87;9.77;;;7.20;99.90;;;;;;5010496;28;20419;-83
2023/02/23 11:54:55;;;;;;;8.17;6.60;;;7.10;99.90;;;;;;5010662;28;20379;-80
2023/02/23 11:57:23;;;;;;;11.13;9.83;;;7.10;99.90;;;;;;4995394;28;20487;-83
2023/02/23 11:59:49;;;;;;;9.53;8.53;;;7.10;99.90;;;;;;4995342;28;20384;-82
2023/02/23 12:02:23;;;;;;;10.33;9.40;;;7.10;99.90;;;;;;4991582;28;20039;-84
2023/02/23 12:04:50;;;;;;;11.23;8.93;;;7.10;99.90;;;;;;4991533;28;20042;-81
2023/02/23 12:07:30;;;;;;;10.13;8.10;;;7.10;99.90;;;;;;5013548;28;20396;-80
2023/02/23 12:10:06;;;;;;;10.40;8.97;;;7.10;99.90;;;;;;4991110;28;20498;-81
2023/02/23 12:12:38;;;;;;;13.40;8.93;;;7.10;99.90;;;;;;5007662;28;20036;-79
2023/02/23 12:15:37;;;;;;;12.67;9.80;;;7.10;99.90;;;;;;4990257;28;20068;-80
2023/02/23 12:18:28;;;;;;;7.43;5.70;;;7.00;99.90;;;;;;4951709;28;20043;-85
2023/02/23 12:20:55;;;;;;;9.90;9.07;;;7.00;99.90;;;;;;4964893;28;20043;-78
2023/02/23 12:23:26;;;;;;;9.90;8.73;;;7.00;99.90;;;;;;4938037;28;20043;-80
2023/02/23 12:25:58;;;;;;;9.57;8.55;;;7.00;99.90;;;;;;4963156;28;20489;-81
2023/02/23 12:28:58;;;;;;;11.67;8.43;;;7.00;99.90;;;;;;4943848;28;20050;-84
2023/02/23 12:31:44;;;;;;;11.70;8.63;;;7.00;99.90;;;;;;4936904;28;20041;-82
2023/02/23 12:34:14;;;;;;;9.70;8.70;;;7.10;99.90;;;;;;4956064;28;20039;-83
2023/02/23 12:37:06;;;;;;;11.93;8.20;;;7.00;99.90;;;;;;4981767;28;20107;-83
2023/02/23 12:39:37;;;;;;;9.83;8.83;;;7.10;99.90;;;;;;4950640;28;20050;-82
2023/02/23 12:42:06;;;;;;;10.37;7.63;;;7.20;99.90;;;;;;4954384;28;20539;-82
2023/02/23 12:44:52;;;;;;;9.53;8.53;;;7.20;99.90;;;;;;4970909;28;20154;-83
2023/02/23 12:47:30;;;;;;;9.43;8.30;;;7.20;99.90;;;;;;4945490;28;20144;-83
2023/02/23 12:50:06;;;;;;;11.93;8.90;;;7.20;99.90;;;;;;4934031;29;20042;-83
2023/02/23 12:52:35;;;;;;;12.20;7.90;;;7.30;99.90;;;;;;4936332;29;20070;-82
2023/02/23 12:55:02;;;;;;;12.23;8.90;;;7.20;99.90;;;;;;4961039;28;20053;-83
2023/02/23 12:57:33;;;;;;;11.30;8.50;;;7.20;99.90;;;;;;5002926;28;20042;-82
2023/02/23 13:00:29;;;;;;;14.93;8.23;;;7.10;99.90;;;;;;5024330;28;20050;-82
2023/02/23 13:03:16;;;;;;;13.77;8.73;;;7.10;99.90;;;;;;5010612;28;20057;-83
2023/02/23 13:06:40;;;;;;;15.90;8.80;;;7.10;99.90;;;;;;5011980;28;20419;-83
2023/02/23 13:09:44;;;;;;;10.43;8.33;;;7.00;99.90;;;;;;4993653;28;20507;-83
2023/02/23 13:12:16;;;;;;;10.80;8.03;;;7.00;99.90;;;;;;4935398;29;20177;-83
2023/02/23 13:14:42;;;;;;;11.90;8.07;;;7.10;99.90;;;;;;4922432;29;20047;-82
2023/02/23 13:17:28;;;;;;;10.70;8.23;;;7.00;99.90;;;;;;4931649;29;20412;-82
2023/02/23 13:20:33;;;;;;;11.07;8.00;;;7.00;99.90;;;;;;4922400;29;20429;-83
2023/02/23 13:23:24;;;;;;;15.33;8.70;;;7.10;99.90;;;;;;4935465;28;20417;-82
2023/02/23 13:26:19;;;;;;;16.90;8.90;;;7.10;99.90;;;;;;4919743;29;20504;-82
2023/02/23 13:28:55;;;;;;;9.70;8.33;;;7.10;99.90;;;;;;4905304;29;20059;-83
2023/02/23 13:31:24;;;;;;;10.60;8.50;;;7.10;99.90;;;;;;4901553;29;20059;-83
2023/02/23 13:33:50;;;;;;;15.60;10.00;;;7.10;99.90;;;;;;4901108;29;20085;-83
2023/02/23 13:36:17;;;;;;;17.03;10.10;;;7.00;99.90;;;;;;4912288;29;20441;-83
2023/02/23 13:39:04;;;;;;;13.57;10.53;;;7.10;99.90;;;;;;4927471;29;20048;-83
2023/02/23 13:41:36;;;;;;;15.07;10.27;;;7.10;99.90;;;;;;4935723;29;20405;-83
2023/02/23 13:44:07;;;;;;;12.60;9.77;;;7.10;99.90;;;;;;4923071;29;20047;-82
2023/02/23 13:46:39;;;;;;;14.03;10.77;;;7.10;99.90;;;;;;4923614;29;20178;-83
2023/02/23 13:49:32;;;;;;;12.70;10.43;;;7.10;99.90;;;;;;4956851;28;20277;-83
2023/02/23 13:52:01;;;;;;;16.17;9.90;;;7.10;99.90;;;;;;5026709;28;20034;-83
2023/02/23 13:54:32;;;;;;;16.37;9.30;;;7.10;99.90;;;;;;4993810;28;20046;-83
2023/02/23 13:57:11;;;;;;;17.27;10.47;;;7.10;99.90;;;;;;5038023;28;20034;-83
2023/02/23 13:59:40;;;;;;;13.70;9.10;;;7.10;99.90;;;;;;5009222;28;20328;-82
2023/02/23 14:02:20;;;;;;;10.00;9.00;;;7.10;99.90;;;;;;5009206;28;20045;-83
2023/02/23 14:04:46;;;;;;;17.47;9.70;;;7.20;99.90;;;;;;5010133;28;20034;-82
2023/02/23 14:07:27;;;;;;;12.50;9.77;;;7.10;99.90;;;;;;5015241;28;20505;-81
2023/02/23 14:10:07;;;;;;;13.33;9.20;;;7.10;99.90;;;;;;5029818;28;20032;-82
2023/02/23 14:12:33;;;;;;;16.77;9.40;;;7.10;99.90;;;;;;5015985;28;20033;-82
2023/02/23 14:15:25;;;;;;;16.17;10.57;;;7.20;99.90;;;;;;5013681;28;20391;-82
2023/02/23 14:17:55;;;;;;;14.57;9.55;;;7.20;99.90;;;;;;5011732;28;20034;-82
2023/02/23 14:20:43;;;;;;;12.82;9.18;;;7.30;99.90;;;;;;5013914;28;20491;-82
2023/02/23 14:23:35;;;;;;;10.67;8.20;;;7.30;99.90;;;;;;5013086;28;20041;-82
2023/02/23 14:26:11;;;;;;;8.97;8.07;;;7.30;99.90;;;;;;5013014;28;20038;-81
2023/02/23 14:29:00;;;;;;;9.17;8.43;;;7.30;99.90;;;;;;5011455;28;20038;-81